Etusivu
METAR-TAF:

METAR-TAF

Lentoasemat :

Sunanin kansainvälinen lentoasema

Pjongjang, Pohjois-Korea

Leveyspiiri: 39-02N, Pituuspiiri: 125-47E, korkeus merenpinnasta: 36 m

METAR: puuttuu

Aika: 01:13 (16:43 UTC)

Sääennuste

Tämä raportti tehtiin 13 tuntia ja 3 minuuttia sitten, kello 03.40 UTC
Ennuste voimassa 21. päivästä klo 06 UTC - 22. päivään klo 06 UTC
Tuuli 12 kn luoteesta puuskistuen 21 kn:hen
Näkyvyys 10 km tai enemmän
ei pilviä alle 1500 m:ssä eikä cumulonimbus-pilviä
Tulossa
21. päivästä klo 10 UTC - 21. päivään klo 12 UTC
Tuuli 8 kn lännestä

TAF: ZKPY 210340Z 2106/2206 32006G11MPS CAVOK TX23/2106Z TN11/2121Z BECMG 2110/2112 26004MPS

Säähavainnot ja -ennusteet yli 4000 lentoasemalta (METAR- ja TAF-raportit).

Käytössä olevat sääasemat on merkitty karttaan keltaisilla ja punaisilla pisteillä.

Aseta hiiri pisteen päälle nähdäksesi sääaseman nimen.

Klikkaa sitten nähdäksesi säähavainnot ja -ennusteet.

Kartan vaihtaminen: klikkaa mustalla rastilla varustettuja vihreitä pisteitä, niin voit zoomata sisään; viivalla varustettua vihreää pistettä, niin voit zoomata ulos tai vihreitä nuolia, niin pääset viereisille kartoille.


METAR-TAF: